Aviation Digital Data Service (ADDS)

Output produced by TAFs form (0153 UTC 27 September 2016)
found at http://aviationweather.gov/adds/tafs/
 
KDMN 262332Z 2700/2724 10015G25KT P6SM VCSH BKN060 OVC120 
     TEMPO 2700/2704 -SHRA BKN060 OVC100 
     FM270400 08010KT P6SM VCSH SCT030 BKN070 BKN100 
     FM271700 09009KT P6SM SCT060 SCT200